sensor_id;sensor_type;location;lat;lon;timestamp;pressure;altitude;pressure_sealevel;temperature;humidity
67980;BME280;54760;47.490;19.030;2023-03-15T00:01:23;98842.25;;;10.88;66.37
67980;BME280;54760;47.490;19.030;2023-03-15T00:03:50;98861.84;;;10.86;66.88
67980;BME280;54760;47.490;19.030;2023-03-15T00:06:16;98861.41;;;10.88;67.01
67980;BME280;54760;47.490;19.030;2023-03-15T00:08:41;98865.34;;;10.87;66.72
67980;BME280;54760;47.490;19.030;2023-03-15T00:11:13;98863.25;;;10.91;66.21
67980;BME280;54760;47.490;19.030;2023-03-15T00:13:39;98863.44;;;11.06;65.92
67980;BME280;54760;47.490;19.030;2023-03-15T00:16:05;98889.81;;;11.12;65.31
67980;BME280;54760;47.490;19.030;2023-03-15T00:18:30;98872.13;;;11.04;64.85
67980;BME280;54760;47.490;19.030;2023-03-15T00:20:56;98880.03;;;11.02;65.17
67980;BME280;54760;47.490;19.030;2023-03-15T00:23:22;98884.09;;;10.89;65.33
67980;BME280;54760;47.490;19.030;2023-03-15T00:25:48;98885.69;;;10.77;65.59
67980;BME280;54760;47.490;19.030;2023-03-15T00:28:15;98891.16;;;10.77;65.57
67980;BME280;54760;47.490;19.030;2023-03-15T00:30:41;98885.06;;;10.73;65.67
67980;BME280;54760;47.490;19.030;2023-03-15T00:33:07;98881.88;;;10.74;65.03
67980;BME280;54760;47.490;19.030;2023-03-15T00:35:37;98886.22;;;10.63;66.07
67980;BME280;54760;47.490;19.030;2023-03-15T00:38:03;98874.88;;;10.73;65.85
67980;BME280;54760;47.490;19.030;2023-03-15T00:40:29;98875.41;;;10.59;66.20
67980;BME280;54760;47.490;19.030;2023-03-15T00:42:54;98867.88;;;10.51;66.30
67980;BME280;54760;47.490;19.030;2023-03-15T00:45:22;98874.78;;;10.55;66.17
67980;BME280;54760;47.490;19.030;2023-03-15T00:47:52;98872.63;;;10.50;65.99
67980;BME280;54760;47.490;19.030;2023-03-15T00:50:18;98864.91;;;10.58;65.54
67980;BME280;54760;47.490;19.030;2023-03-15T00:52:44;98855.94;;;10.57;65.50
67980;BME280;54760;47.490;19.030;2023-03-15T00:55:12;98855.69;;;10.42;65.86
67980;BME280;54760;47.490;19.030;2023-03-15T00:57:40;98853.34;;;10.54;65.84
67980;BME280;54760;47.490;19.030;2023-03-15T01:00:09;98851.13;;;10.39;65.89
67980;BME280;54760;47.490;19.030;2023-03-15T01:02:35;98851.19;;;10.49;65.40
67980;BME280;54760;47.490;19.030;2023-03-15T01:05:06;98854.31;;;10.38;65.90
67980;BME280;54760;47.490;19.030;2023-03-15T01:07:31;98852.25;;;10.51;64.99
67980;BME280;54760;47.490;19.030;2023-03-15T01:09:58;98862.41;;;10.51;64.53
67980;BME280;54760;47.490;19.030;2023-03-15T01:12:23;98849.53;;;10.29;64.08
67980;BME280;54760;47.490;19.030;2023-03-15T01:14:49;98860.41;;;10.20;64.07
67980;BME280;54760;47.490;19.030;2023-03-15T01:17:14;98870.94;;;10.09;64.14
67980;BME280;54760;47.490;19.030;2023-03-15T01:19:40;98876.47;;;10.31;63.43
67980;BME280;54760;47.490;19.030;2023-03-15T01:22:05;98887.78;;;10.20;63.23
67980;BME280;54760;47.490;19.030;2023-03-15T01:24:31;98872.63;;;10.28;63.06
67980;BME280;54760;47.490;19.030;2023-03-15T01:26:56;98881.72;;;10.25;63.17
67980;BME280;54760;47.490;19.030;2023-03-15T01:29:21;98881.19;;;10.18;63.12
67980;BME280;54760;47.490;19.030;2023-03-15T01:31:47;98868.62;;;10.20;63.19
67980;BME280;54760;47.490;19.030;2023-03-15T01:34:12;98886.56;;;10.09;62.81
67980;BME280;54760;47.490;19.030;2023-03-15T01:36:38;98878.81;;;10.07;62.98
67980;BME280;54760;47.490;19.030;2023-03-15T01:39:03;98877.53;;;9.99;61.95
67980;BME280;54760;47.490;19.030;2023-03-15T01:41:28;98871.31;;;9.98;61.83
67980;BME280;54760;47.490;19.030;2023-03-15T01:43:54;98874.69;;;10.02;60.87
67980;BME280;54760;47.490;19.030;2023-03-15T01:46:26;98875.13;;;10.01;61.29
67980;BME280;54760;47.490;19.030;2023-03-15T01:48:59;98873.16;;;10.02;61.32
67980;BME280;54760;47.490;19.030;2023-03-15T01:51:39;98879.66;;;9.82;62.09
67980;BME280;54760;47.490;19.030;2023-03-15T01:54:27;98870.25;;;9.83;61.56
67980;BME280;54760;47.490;19.030;2023-03-15T01:57:17;98872.78;;;9.90;61.28
67980;BME280;54760;47.490;19.030;2023-03-15T01:59:52;98877.25;;;9.84;61.70
67980;BME280;54760;47.490;19.030;2023-03-15T02:02:20;98870.06;;;9.78;61.59
67980;BME280;54760;47.490;19.030;2023-03-15T02:05:01;98875.28;;;9.85;61.93
67980;BME280;54760;47.490;19.030;2023-03-15T02:07:29;98868.84;;;9.79;61.83
67980;BME280;54760;47.490;19.030;2023-03-15T02:10:10;98868.06;;;9.91;61.66
67980;BME280;54760;47.490;19.030;2023-03-15T02:12:42;98861.97;;;9.87;61.31
67980;BME280;54760;47.490;19.030;2023-03-15T02:15:10;98862.31;;;9.76;61.29
67980;BME280;54760;47.490;19.030;2023-03-15T02:17:41;98856.44;;;9.65;61.86
67980;BME280;54760;47.490;19.030;2023-03-15T02:23:02;98875.16;;;9.54;62.19
67980;BME280;54760;47.490;19.030;2023-03-15T02:27:58;98872.41;;;9.67;61.27
67980;BME280;54760;47.490;19.030;2023-03-15T02:30:25;98865.41;;;9.66;61.92
67980;BME280;54760;47.490;19.030;2023-03-15T02:32:50;98852.19;;;9.64;62.07
67980;BME280;54760;47.490;19.030;2023-03-15T02:35:28;98859.59;;;9.64;62.04
67980;BME280;54760;47.490;19.030;2023-03-15T02:37:54;98854.97;;;9.51;62.50
67980;BME280;54760;47.490;19.030;2023-03-15T02:40:22;98863.72;;;9.46;62.74
67980;BME280;54760;47.490;19.030;2023-03-15T02:42:50;98861.06;;;9.55;62.56
67980;BME280;54760;47.490;19.030;2023-03-15T02:45:17;98855.25;;;9.53;62.62
67980;BME280;54760;47.490;19.030;2023-03-15T02:47:43;98864.00;;;9.48;63.05
67980;BME280;54760;47.490;19.030;2023-03-15T02:50:10;98872.41;;;9.67;62.46
67980;BME280;54760;47.490;19.030;2023-03-15T02:52:35;98880.75;;;9.50;63.18
67980;BME280;54760;47.490;19.030;2023-03-15T02:55:01;98874.38;;;9.53;63.27
67980;BME280;54760;47.490;19.030;2023-03-15T02:57:27;98883.47;;;9.50;63.39
67980;BME280;54760;47.490;19.030;2023-03-15T02:59:52;98883.03;;;9.52;63.65
67980;BME280;54760;47.490;19.030;2023-03-15T03:02:20;98881.28;;;9.45;63.53
67980;BME280;54760;47.490;19.030;2023-03-15T03:04:46;98883.91;;;9.49;63.48
67980;BME280;54760;47.490;19.030;2023-03-15T03:07:12;98881.72;;;9.56;63.41
67980;BME280;54760;47.490;19.030;2023-03-15T03:09:37;98877.69;;;9.48;63.65
67980;BME280;54760;47.490;19.030;2023-03-15T03:12:03;98874.41;;;9.41;63.83
67980;BME280;54760;47.490;19.030;2023-03-15T03:14:29;98880.09;;;9.46;63.71
67980;BME280;54760;47.490;19.030;2023-03-15T03:16:55;98877.56;;;9.52;63.76
67980;BME280;54760;47.490;19.030;2023-03-15T03:19:20;98869.16;;;9.46;63.05
67980;BME280;54760;47.490;19.030;2023-03-15T03:21:50;98872.03;;;9.43;63.35
67980;BME280;54760;47.490;19.030;2023-03-15T03:24:18;98868.88;;;9.32;62.75
67980;BME280;54760;47.490;19.030;2023-03-15T03:26:43;98868.53;;;9.42;61.92
67980;BME280;54760;47.490;19.030;2023-03-15T03:29:12;98858.91;;;9.38;61.46
67980;BME280;54760;47.490;19.030;2023-03-15T03:31:41;98876.38;;;9.40;61.41
67980;BME280;54760;47.490;19.030;2023-03-15T03:34:06;98873.00;;;9.36;61.18
67980;BME280;54760;47.490;19.030;2023-03-15T03:36:33;98863.94;;;9.39;60.95
67980;BME280;54760;47.490;19.030;2023-03-15T03:38:59;98867.53;;;9.36;61.38
67980;BME280;54760;47.490;19.030;2023-03-15T03:41:25;98871.16;;;9.33;61.50
67980;BME280;54760;47.490;19.030;2023-03-15T03:43:51;98865.41;;;9.19;61.28
67980;BME280;54760;47.490;19.030;2023-03-15T03:46:17;98860.66;;;9.19;61.14
67980;BME280;54760;47.490;19.030;2023-03-15T03:48:42;98862.22;;;9.20;61.51
67980;BME280;54760;47.490;19.030;2023-03-15T03:51:08;98858.19;;;9.12;61.52
67980;BME280;54760;47.490;19.030;2023-03-15T03:53:33;98868.22;;;9.15;61.51
67980;BME280;54760;47.490;19.030;2023-03-15T03:55:59;98869.41;;;9.14;61.49
67980;BME280;54760;47.490;19.030;2023-03-15T03:58:28;98865.19;;;9.13;61.76
67980;BME280;54760;47.490;19.030;2023-03-15T04:00:53;98856.22;;;9.12;61.47
67980;BME280;54760;47.490;19.030;2023-03-15T04:03:19;98863.88;;;9.18;61.15
67980;BME280;54760;47.490;19.030;2023-03-15T04:06:00;98863.66;;;9.12;61.46
67980;BME280;54760;47.490;19.030;2023-03-15T04:08:25;98867.91;;;9.13;61.62
67980;BME280;54760;47.490;19.030;2023-03-15T04:10:55;98863.66;;;9.12;61.31
67980;BME280;54760;47.490;19.030;2023-03-15T04:13:21;98865.19;;;9.13;60.85
67980;BME280;54760;47.490;19.030;2023-03-15T04:15:47;98876.41;;;9.15;60.74
67980;BME280;54760;47.490;19.030;2023-03-15T04:18:13;98866.37;;;9.12;60.64
67980;BME280;54760;47.490;19.030;2023-03-15T04:20:39;98878.38;;;9.14;60.19
67980;BME280;54760;47.490;19.030;2023-03-15T04:23:21;98883.19;;;9.23;60.05
67980;BME280;54760;47.490;19.030;2023-03-15T04:25:48;98881.22;;;9.11;59.95
67980;BME280;54760;47.490;19.030;2023-03-15T04:28:14;98878.47;;;9.24;59.30
67980;BME280;54760;47.490;19.030;2023-03-15T04:30:39;98887.97;;;9.19;59.56
67980;BME280;54760;47.490;19.030;2023-03-15T04:33:08;98879.59;;;9.01;59.19
67980;BME280;54760;47.490;19.030;2023-03-15T04:35:35;98883.19;;;8.98;58.87
67980;BME280;54760;47.490;19.030;2023-03-15T04:38:02;98881.13;;;9.02;58.52
67980;BME280;54760;47.490;19.030;2023-03-15T04:40:28;98880.47;;;8.98;59.05
67980;BME280;54760;47.490;19.030;2023-03-15T04:42:55;98892.03;;;8.89;58.81
67980;BME280;54760;47.490;19.030;2023-03-15T04:45:24;98908.81;;;8.75;59.31
67980;BME280;54760;47.490;19.030;2023-03-15T04:47:50;98903.03;;;8.73;59.45
67980;BME280;54760;47.490;19.030;2023-03-15T04:50:16;98922.25;;;8.69;59.28
67980;BME280;54760;47.490;19.030;2023-03-15T04:52:42;98929.22;;;8.70;59.02
67980;BME280;54760;47.490;19.030;2023-03-15T04:55:08;98934.06;;;8.50;59.23
67980;BME280;54760;47.490;19.030;2023-03-15T04:57:33;98924.38;;;8.49;58.93
67980;BME280;54760;47.490;19.030;2023-03-15T04:59:59;98925.22;;;8.46;58.81
67980;BME280;54760;47.490;19.030;2023-03-15T05:02:24;98923.91;;;8.38;58.89
67980;BME280;54760;47.490;19.030;2023-03-15T05:04:49;98928.69;;;8.34;58.95
67980;BME280;54760;47.490;19.030;2023-03-15T05:07:15;98908.94;;;8.14;59.41
67980;BME280;54760;47.490;19.030;2023-03-15T05:09:40;98933.22;;;8.08;59.43
67980;BME280;54760;47.490;19.030;2023-03-15T05:12:06;98921.25;;;7.90;59.70
67980;BME280;54760;47.490;19.030;2023-03-15T05:14:32;98934.91;;;7.73;60.16
67980;BME280;54760;47.490;19.030;2023-03-15T05:16:58;98930.31;;;7.70;60.33
67980;BME280;54760;47.490;19.030;2023-03-15T05:19:27;98921.97;;;7.61;60.76
67980;BME280;54760;47.490;19.030;2023-03-15T05:21:53;98910.84;;;7.56;61.04
67980;BME280;54760;47.490;19.030;2023-03-15T05:24:19;98919.09;;;7.52;61.19
67980;BME280;54760;47.490;19.030;2023-03-15T05:26:45;98916.03;;;7.50;61.38
67980;BME280;54760;47.490;19.030;2023-03-15T05:29:11;98932.34;;;7.50;61.38
67980;BME280;54760;47.490;19.030;2023-03-15T05:31:37;98917.38;;;7.26;62.24
67980;BME280;54760;47.490;19.030;2023-03-15T05:34:03;98917.59;;;7.15;62.75
67980;BME280;54760;47.490;19.030;2023-03-15T05:36:29;98918.03;;;7.14;62.97
67980;BME280;54760;47.490;19.030;2023-03-15T05:38:55;98912.59;;;7.14;63.18
67980;BME280;54760;47.490;19.030;2023-03-15T05:41:21;98915.81;;;7.09;63.40
67980;BME280;54760;47.490;19.030;2023-03-15T05:43:46;98916.94;;;7.11;63.71
67980;BME280;54760;47.490;19.030;2023-03-15T05:46:12;98926.19;;;7.14;63.68
67980;BME280;54760;47.490;19.030;2023-03-15T05:48:37;98917.69;;;7.12;63.70
67980;BME280;54760;47.490;19.030;2023-03-15T05:51:03;98920.00;;;7.13;63.92
67980;BME280;54760;47.490;19.030;2023-03-15T05:53:28;98912.06;;;7.03;64.28
67980;BME280;54760;47.490;19.030;2023-03-15T05:55:54;98918.13;;;7.10;64.11
67980;BME280;54760;47.490;19.030;2023-03-15T05:58:19;98915.75;;;7.12;64.16
67980;BME280;54760;47.490;19.030;2023-03-15T06:00:45;98928.41;;;7.19;64.03
67980;BME280;54760;47.490;19.030;2023-03-15T06:03:10;98932.34;;;7.18;64.32
67980;BME280;54760;47.490;19.030;2023-03-15T06:05:36;98923.91;;;7.28;64.06
67980;BME280;54760;47.490;19.030;2023-03-15T06:08:01;98929.25;;;7.16;64.61
67980;BME280;54760;47.490;19.030;2023-03-15T06:10:26;98935.56;;;7.13;64.95
67980;BME280;54760;47.490;19.030;2023-03-15T06:12:52;98936.25;;;7.17;65.02
67980;BME280;54760;47.490;19.030;2023-03-15T06:15:18;98946.25;;;7.04;65.30
67980;BME280;54760;47.490;19.030;2023-03-15T06:17:44;98959.88;;;7.20;65.10
67980;BME280;54760;47.490;19.030;2023-03-15T06:20:09;98967.50;;;7.09;65.49
67980;BME280;54760;47.490;19.030;2023-03-15T06:22:35;98966.00;;;7.08;65.54
67980;BME280;54760;47.490;19.030;2023-03-15T06:25:00;98970.16;;;7.12;65.49
67980;BME280;54760;47.490;19.030;2023-03-15T06:27:27;98983.00;;;7.12;65.66
67980;BME280;54760;47.490;19.030;2023-03-15T06:29:53;98982.81;;;7.03;65.92
67980;BME280;54760;47.490;19.030;2023-03-15T06:32:18;98982.19;;;6.95;66.21
67980;BME280;54760;47.490;19.030;2023-03-15T06:34:44;99002.78;;;6.96;66.30
67980;BME280;54760;47.490;19.030;2023-03-15T06:37:09;98998.66;;;7.08;65.82
67980;BME280;54760;47.490;19.030;2023-03-15T06:39:38;98995.03;;;6.94;66.08
67980;BME280;54760;47.490;19.030;2023-03-15T06:42:04;99001.19;;;6.99;65.54
67980;BME280;54760;47.490;19.030;2023-03-15T06:44:30;99002.97;;;6.85;65.78
67980;BME280;54760;47.490;19.030;2023-03-15T06:46:56;99002.78;;;6.96;65.36
67980;BME280;54760;47.490;19.030;2023-03-15T06:49:21;99005.00;;;7.01;64.96
67980;BME280;54760;47.490;19.030;2023-03-15T06:51:47;99004.69;;;7.15;64.88
67980;BME280;54760;47.490;19.030;2023-03-15T06:54:12;99011.59;;;7.20;64.42
67980;BME280;54760;47.490;19.030;2023-03-15T06:56:38;99006.25;;;7.16;64.25
67980;BME280;54760;47.490;19.030;2023-03-15T06:59:04;99012.75;;;7.03;64.63
67980;BME280;54760;47.490;19.030;2023-03-15T07:01:30;99022.28;;;7.11;64.20
67980;BME280;54760;47.490;19.030;2023-03-15T07:03:55;99021.09;;;7.12;64.06
67980;BME280;54760;47.490;19.030;2023-03-15T07:06:20;99028.41;;;7.15;63.95
67980;BME280;54760;47.490;19.030;2023-03-15T07:08:46;99029.12;;;6.99;64.58
67980;BME280;54760;47.490;19.030;2023-03-15T07:11:12;99040.16;;;7.12;64.26
67980;BME280;54760;47.490;19.030;2023-03-15T07:13:37;99038.13;;;7.16;64.08
67980;BME280;54760;47.490;19.030;2023-03-15T07:16:03;99047.66;;;7.24;63.71
67980;BME280;54760;47.490;19.030;2023-03-15T07:18:28;99046.78;;;7.11;64.03
67980;BME280;54760;47.490;19.030;2023-03-15T07:20:57;99053.69;;;7.15;63.61
67980;BME280;54760;47.490;19.030;2023-03-15T07:23:24;99056.31;;;7.19;63.80
67980;BME280;54760;47.490;19.030;2023-03-15T07:25:49;99056.69;;;7.21;63.52
67980;BME280;54760;47.490;19.030;2023-03-15T07:28:15;99063.66;;;7.22;63.24
67980;BME280;54760;47.490;19.030;2023-03-15T07:30:40;99066.22;;;7.29;63.14
67980;BME280;54760;47.490;19.030;2023-03-15T07:33:05;99073.38;;;7.23;62.94
67980;BME280;54760;47.490;19.030;2023-03-15T07:35:31;99064.28;;;7.29;62.16
67980;BME280;54760;47.490;19.030;2023-03-15T07:37:57;99083.12;;;7.40;61.97
67980;BME280;54760;47.490;19.030;2023-03-15T07:40:22;99065.91;;;7.27;62.17
67980;BME280;54760;47.490;19.030;2023-03-15T07:42:49;99078.06;;;7.22;62.04
67980;BME280;54760;47.490;19.030;2023-03-15T07:45:14;99061.44;;;7.17;62.25
67980;BME280;54760;47.490;19.030;2023-03-15T07:47:40;99066.97;;;7.13;62.15
67980;BME280;54760;47.490;19.030;2023-03-15T07:50:05;99071.41;;;7.23;61.94
67980;BME280;54760;47.490;19.030;2023-03-15T07:52:32;99066.03;;;7.20;61.86
67980;BME280;54760;47.490;19.030;2023-03-15T07:54:57;99072.88;;;7.28;61.74
67980;BME280;54760;47.490;19.030;2023-03-15T07:57:23;99062.06;;;7.24;61.41
67980;BME280;54760;47.490;19.030;2023-03-15T07:59:48;99055.84;;;7.24;61.39
67980;BME280;54760;47.490;19.030;2023-03-15T08:02:14;99056.81;;;7.14;61.59
67980;BME280;54760;47.490;19.030;2023-03-15T08:04:40;99066.50;;;7.34;61.04
67980;BME280;54760;47.490;19.030;2023-03-15T08:07:05;99063.50;;;7.29;60.69
67980;BME280;54760;47.490;19.030;2023-03-15T08:09:31;99072.03;;;7.31;60.25
67980;BME280;54760;47.490;19.030;2023-03-15T08:12:00;99072.31;;;7.17;60.67
67980;BME280;54760;47.490;19.030;2023-03-15T08:14:26;99062.25;;;7.14;60.47
67980;BME280;54760;47.490;19.030;2023-03-15T08:16:51;99069.31;;;7.31;59.35
67980;BME280;54760;47.490;19.030;2023-03-15T08:19:17;99075.16;;;7.29;59.07
67980;BME280;54760;47.490;19.030;2023-03-15T08:21:42;99067.50;;;7.24;59.29
67980;BME280;54760;47.490;19.030;2023-03-15T08:24:11;99076.91;;;7.20;58.96
67980;BME280;54760;47.490;19.030;2023-03-15T08:26:36;99077.63;;;7.24;58.91
67980;BME280;54760;47.490;19.030;2023-03-15T08:29:02;99084.75;;;7.18;58.63
67980;BME280;54760;47.490;19.030;2023-03-15T08:31:28;99081.06;;;7.08;58.52
67980;BME280;54760;47.490;19.030;2023-03-15T08:33:53;99089.44;;;7.17;58.33
67980;BME280;54760;47.490;19.030;2023-03-15T08:36:19;99090.19;;;7.18;58.06
67980;BME280;54760;47.490;19.030;2023-03-15T08:38:44;99096.19;;;7.29;57.73
67980;BME280;54760;47.490;19.030;2023-03-15T08:41:10;99095.41;;;7.28;57.49
67980;BME280;54760;47.490;19.030;2023-03-15T08:43:35;99100.09;;;7.28;56.81
67980;BME280;54760;47.490;19.030;2023-03-15T08:46:01;99109.50;;;7.23;56.46
67980;BME280;54760;47.490;19.030;2023-03-15T08:48:26;99118.69;;;7.33;56.22
67980;BME280;54760;47.490;19.030;2023-03-15T08:50:52;99126.34;;;7.18;56.42
67980;BME280;54760;47.490;19.030;2023-03-15T08:53:17;99126.56;;;7.27;56.19
67980;BME280;54760;47.490;19.030;2023-03-15T08:55:43;99135.69;;;7.37;55.81
67980;BME280;54760;47.490;19.030;2023-03-15T08:58:08;99142.81;;;7.31;55.89
67980;BME280;54760;47.490;19.030;2023-03-15T09:00:34;99149.03;;;7.31;55.58
67980;BME280;54760;47.490;19.030;2023-03-15T09:02:59;99151.38;;;7.29;55.33
67980;BME280;54760;47.490;19.030;2023-03-15T09:05:25;99171.59;;;7.32;55.14
67980;BME280;54760;47.490;19.030;2023-03-15T09:07:51;99167.09;;;7.22;54.82
67980;BME280;54760;47.490;19.030;2023-03-15T09:10:20;99177.06;;;7.09;55.24
67980;BME280;54760;47.490;19.030;2023-03-15T09:12:48;99186.50;;;7.24;54.80
67980;BME280;54760;47.490;19.030;2023-03-15T09:15:14;99177.63;;;7.20;54.90
67980;BME280;54760;47.490;19.030;2023-03-15T09:17:40;99182.25;;;7.23;55.34
67980;BME280;54760;47.490;19.030;2023-03-15T09:20:08;99193.84;;;7.27;55.10
67980;BME280;54760;47.490;19.030;2023-03-15T09:22:35;99194.31;;;7.22;55.20
67980;BME280;54760;47.490;19.030;2023-03-15T09:25:01;99199.00;;;7.21;55.12
67980;BME280;54760;47.490;19.030;2023-03-15T09:27:29;99210.38;;;7.16;55.59
67980;BME280;54760;47.490;19.030;2023-03-15T09:29:55;99207.50;;;7.04;55.66
67980;BME280;54760;47.490;19.030;2023-03-15T09:32:21;99213.16;;;7.13;55.29
67980;BME280;54760;47.490;19.030;2023-03-15T09:34:46;99226.28;;;7.18;55.29
67980;BME280;54760;47.490;19.030;2023-03-15T09:37:12;99225.84;;;7.19;55.02
67980;BME280;54760;47.490;19.030;2023-03-15T09:39:37;99234.31;;;7.25;54.37
67980;BME280;54760;47.490;19.030;2023-03-15T09:42:06;99222.13;;;7.10;54.82
67980;BME280;54760;47.490;19.030;2023-03-15T09:44:53;99244.34;;;7.08;54.79
67980;BME280;54760;47.490;19.030;2023-03-15T09:47:37;99239.66;;;7.09;54.74
67980;BME280;54760;47.490;19.030;2023-03-15T09:50:18;99244.94;;;7.39;53.91
67980;BME280;54760;47.490;19.030;2023-03-15T09:52:48;99246.03;;;7.22;53.76
67980;BME280;54760;47.490;19.030;2023-03-15T09:58:02;99246.37;;;7.24;53.83
67980;BME280;54760;47.490;19.030;2023-03-15T10:00:38;99249.00;;;7.31;53.23
67980;BME280;54760;47.490;19.030;2023-03-15T10:03:05;99244.13;;;7.19;53.51
67980;BME280;54760;47.490;19.030;2023-03-15T10:05:42;99248.03;;;7.41;53.19
67980;BME280;54760;47.490;19.030;2023-03-15T10:08:11;99237.03;;;7.25;53.28
67980;BME280;54760;47.490;19.030;2023-03-15T10:10:44;99240.19;;;7.43;52.66
67980;BME280;54760;47.490;19.030;2023-03-15T10:19:01;99250.16;;;7.30;52.86
67980;BME280;54760;47.490;19.030;2023-03-15T10:23:58;99251.38;;;7.49;51.91
67980;BME280;54760;47.490;19.030;2023-03-15T10:26:32;99246.91;;;7.38;51.95
67980;BME280;54760;47.490;19.030;2023-03-15T10:29:01;99255.16;;;7.55;51.33
67980;BME280;54760;47.490;19.030;2023-03-15T10:31:42;99257.09;;;7.54;51.15
67980;BME280;54760;47.490;19.030;2023-03-15T10:34:09;99252.50;;;7.51;51.12
67980;BME280;54760;47.490;19.030;2023-03-15T10:36:35;99267.22;;;7.54;51.11
67980;BME280;54760;47.490;19.030;2023-03-15T10:39:01;99269.75;;;7.64;50.67
67980;BME280;54760;47.490;19.030;2023-03-15T10:41:47;99281.62;;;7.54;51.06
67980;BME280;54760;47.490;19.030;2023-03-15T10:44:19;99279.81;;;7.67;50.81
67980;BME280;54760;47.490;19.030;2023-03-15T10:47:15;99278.84;;;7.77;50.51
67980;BME280;54760;47.490;19.030;2023-03-15T10:49:43;99292.81;;;7.79;49.85
67980;BME280;54760;47.490;19.030;2023-03-15T10:52:35;99279.50;;;7.85;49.79
67980;BME280;54760;47.490;19.030;2023-03-15T10:55:15;99293.09;;;8.05;49.55
67980;BME280;54760;47.490;19.030;2023-03-15T10:57:51;99287.22;;;8.06;49.53
67980;BME280;54760;47.490;19.030;2023-03-15T11:00:30;99288.25;;;8.12;48.85
67980;BME280;54760;47.490;19.030;2023-03-15T11:03:13;99298.94;;;8.23;48.65
67980;BME280;54760;47.490;19.030;2023-03-15T11:05:43;99306.19;;;8.33;48.36
67980;BME280;54760;47.490;19.030;2023-03-15T11:08:15;99293.09;;;8.44;47.99
67980;BME280;54760;47.490;19.030;2023-03-15T11:10:42;99303.78;;;8.55;47.88
67980;BME280;54760;47.490;19.030;2023-03-15T11:13:20;99314.22;;;8.56;47.45
67980;BME280;54760;47.490;19.030;2023-03-15T11:15:53;99319.72;;;8.73;46.93
67980;BME280;54760;47.490;19.030;2023-03-15T11:18:27;99311.97;;;8.71;46.82
67980;BME280;54760;47.490;19.030;2023-03-15T11:20:54;99310.00;;;8.72;46.55
67980;BME280;54760;47.490;19.030;2023-03-15T11:23:27;99318.38;;;8.81;46.27
67980;BME280;54760;47.490;19.030;2023-03-15T11:25:54;99317.34;;;8.75;46.45
67980;BME280;54760;47.490;19.030;2023-03-15T11:28:26;99312.91;;;8.81;46.23
67980;BME280;54760;47.490;19.030;2023-03-15T11:30:54;99318.38;;;8.64;46.39
67980;BME280;54760;47.490;19.030;2023-03-15T11:33:47;99322.37;;;8.76;46.42
67980;BME280;54760;47.490;19.030;2023-03-15T11:36:21;99326.84;;;9.02;45.79
67980;BME280;54760;47.490;19.030;2023-03-15T11:38:48;99318.91;;;9.08;45.16
67980;BME280;54760;47.490;19.030;2023-03-15T11:41:41;99325.72;;;8.84;45.40
67980;BME280;54760;47.490;19.030;2023-03-15T11:47:12;99319.69;;;9.08;44.93
67980;BME280;54760;47.490;19.030;2023-03-15T11:49:52;99324.28;;;9.11;45.27
67980;BME280;54760;47.490;19.030;2023-03-15T11:52:21;99321.88;;;9.30;44.76
67980;BME280;54760;47.490;19.030;2023-03-15T11:54:49;99318.72;;;9.47;44.78
67980;BME280;54760;47.490;19.030;2023-03-15T11:59:53;99332.19;;;9.54;44.23
67980;BME280;54760;47.490;19.030;2023-03-15T12:04:46;99341.94;;;9.23;44.31
67980;BME280;54760;47.490;19.030;2023-03-15T12:22:51;99335.41;;;9.66;42.99
67980;BME280;54760;47.490;19.030;2023-03-15T12:25:34;99346.69;;;9.51;43.64
67980;BME280;54760;47.490;19.030;2023-03-15T12:28:06;99346.13;;;9.73;43.21
67980;BME280;54760;47.490;19.030;2023-03-15T12:30:40;99342.72;;;9.85;42.32
67980;BME280;54760;47.490;19.030;2023-03-15T12:33:15;99338.81;;;10.27;41.69
67980;BME280;54760;47.490;19.030;2023-03-15T12:35:42;99344.53;;;10.04;41.55
67980;BME280;54760;47.490;19.030;2023-03-15T12:38:19;99341.66;;;9.95;41.29
67980;BME280;54760;47.490;19.030;2023-03-15T12:40:56;99342.31;;;9.99;41.13
67980;BME280;54760;47.490;19.030;2023-03-15T12:43:42;99346.84;;;10.06;40.05
67980;BME280;54760;47.490;19.030;2023-03-15T12:49:13;99351.31;;;10.12;40.88
67980;BME280;54760;47.490;19.030;2023-03-15T12:54:44;99352.31;;;10.06;40.32
67980;BME280;54760;47.490;19.030;2023-03-15T12:57:20;99345.00;;;10.15;39.31
67980;BME280;54760;47.490;19.030;2023-03-15T12:59:49;99354.06;;;10.12;39.47
67980;BME280;54760;47.490;19.030;2023-03-15T13:03:01;99353.47;;;9.92;39.37
67980;BME280;54760;47.490;19.030;2023-03-15T13:05:34;99352.72;;;10.04;39.58
67980;BME280;54760;47.490;19.030;2023-03-15T13:18:58;99371.50;;;10.18;37.84
67980;BME280;54760;47.490;19.030;2023-03-15T13:21:46;99383.13;;;10.22;37.81
67980;BME280;54760;47.490;19.030;2023-03-15T13:24:23;99385.66;;;10.29;37.60
67980;BME280;54760;47.490;19.030;2023-03-15T13:29:47;99384.25;;;10.37;37.02
67980;BME280;54760;47.490;19.030;2023-03-15T13:32:16;99390.34;;;10.70;35.98
67980;BME280;54760;47.490;19.030;2023-03-15T13:34:44;99398.66;;;10.67;36.19
67980;BME280;54760;47.490;19.030;2023-03-15T13:37:19;99395.91;;;10.67;35.25
67980;BME280;54760;47.490;19.030;2023-03-15T13:39:59;99395.56;;;10.52;35.76
67980;BME280;54760;47.490;19.030;2023-03-15T13:42:25;99394.13;;;10.48;35.65
67980;BME280;54760;47.490;19.030;2023-03-15T13:45:10;99408.69;;;10.45;35.26
67980;BME280;54760;47.490;19.030;2023-03-15T13:47:42;99411.12;;;10.26;35.27
67980;BME280;54760;47.490;19.030;2023-03-15T13:50:16;99415.19;;;10.06;35.30
67980;BME280;54760;47.490;19.030;2023-03-15T13:52:42;99416.09;;;9.86;35.53
67980;BME280;54760;47.490;19.030;2023-03-15T13:55:13;99425.28;;;9.92;35.34
67980;BME280;54760;47.490;19.030;2023-03-15T13:57:39;99426.31;;;9.82;35.33
67980;BME280;54760;47.490;19.030;2023-03-15T14:00:12;99429.75;;;9.70;35.30
67980;BME280;54760;47.490;19.030;2023-03-15T14:02:50;99426.25;;;9.53;35.87
67980;BME280;54760;47.490;19.030;2023-03-15T14:05:25;99433.69;;;9.69;35.41